sensor_id;sensor_type;location;lat;lon;timestamp;pressure;altitude;pressure_sealevel;temperature;humidity
49194;BME280;35029;50.804;12.866;2023-04-24T00:02:08;96508.44;;;12.45;93.65
49194;BME280;35029;50.804;12.866;2023-04-24T00:04:37;96511.88;;;12.45;93.01
49194;BME280;35029;50.804;12.866;2023-04-24T00:07:06;96514.06;;;12.48;93.89
49194;BME280;35029;50.804;12.866;2023-04-24T00:09:32;96519.38;;;12.48;93.95
49194;BME280;35029;50.804;12.866;2023-04-24T00:11:58;96513.75;;;12.45;94.22
49194;BME280;35029;50.804;12.866;2023-04-24T00:14:24;96505.28;;;12.48;94.68
49194;BME280;35029;50.804;12.866;2023-04-24T00:16:49;96503.16;;;12.33;96.54
49194;BME280;35029;50.804;12.866;2023-04-24T00:19:15;96515.72;;;12.38;97.29
49194;BME280;35029;50.804;12.866;2023-04-24T00:21:41;96501.44;;;12.27;97.63
49194;BME280;35029;50.804;12.866;2023-04-24T00:24:07;96515.16;;;12.36;98.05
49194;BME280;35029;50.804;12.866;2023-04-24T00:26:36;96502.44;;;12.38;97.68
49194;BME280;35029;50.804;12.866;2023-04-24T00:29:01;96512.28;;;12.37;98.26
49194;BME280;35029;50.804;12.866;2023-04-24T00:31:27;96504.19;;;12.32;98.14
49194;BME280;35029;50.804;12.866;2023-04-24T00:33:53;96519.91;;;12.33;98.28
49194;BME280;35029;50.804;12.866;2023-04-24T00:36:18;96507.88;;;12.31;98.34
49194;BME280;35029;50.804;12.866;2023-04-24T00:38:46;96515.97;;;12.36;98.74
49194;BME280;35029;50.804;12.866;2023-04-24T00:41:11;96510.41;;;12.38;98.53
49194;BME280;35029;50.804;12.866;2023-04-24T00:43:37;96506.16;;;12.37;99.01
49194;BME280;35029;50.804;12.866;2023-04-24T00:46:03;96501.53;;;12.32;99.35
49194;BME280;35029;50.804;12.866;2023-04-24T00:48:29;96488.06;;;12.22;98.87
49194;BME280;35029;50.804;12.866;2023-04-24T00:50:56;96472.28;;;12.15;98.87
49194;BME280;35029;50.804;12.866;2023-04-24T00:53:23;96505.38;;;12.24;98.28
49194;BME280;35029;50.804;12.866;2023-04-24T00:55:48;96508.59;;;12.26;99.17
49194;BME280;35029;50.804;12.866;2023-04-24T00:58:14;96502.81;;;12.29;98.55
49194;BME280;35029;50.804;12.866;2023-04-24T01:00:40;96498.59;;;12.16;99.38
49194;BME280;35029;50.804;12.866;2023-04-24T01:03:06;96502.53;;;12.14;99.26
49194;BME280;35029;50.804;12.866;2023-04-24T01:05:32;96503.50;;;11.96;100.00
49194;BME280;35029;50.804;12.866;2023-04-24T01:07:59;96501.66;;;11.96;100.00
49194;BME280;35029;50.804;12.866;2023-04-24T01:10:25;96503.94;;;12.05;100.00
49194;BME280;35029;50.804;12.866;2023-04-24T01:12:53;96501.75;;;11.90;100.00
49194;BME280;35029;50.804;12.866;2023-04-24T01:15:18;96473.72;;;11.70;100.00
49194;BME280;35029;50.804;12.866;2023-04-24T01:17:45;96497.38;;;11.83;100.00
49194;BME280;35029;50.804;12.866;2023-04-24T01:20:13;96499.31;;;11.88;100.00
49194;BME280;35029;50.804;12.866;2023-04-24T01:22:40;96474.16;;;11.79;99.80
49194;BME280;35029;50.804;12.866;2023-04-24T01:25:06;96472.19;;;11.86;99.97
49194;BME280;35029;50.804;12.866;2023-04-24T01:27:32;96482.56;;;11.99;98.67
49194;BME280;35029;50.804;12.866;2023-04-24T01:29:58;96492.06;;;11.95;98.31
49194;BME280;35029;50.804;12.866;2023-04-24T01:32:24;96496.19;;;11.91;98.43
49194;BME280;35029;50.804;12.866;2023-04-24T01:34:50;96499.44;;;11.93;99.13
49194;BME280;35029;50.804;12.866;2023-04-24T01:37:16;96487.91;;;11.88;98.88
49194;BME280;35029;50.804;12.866;2023-04-24T01:39:43;96490.44;;;11.82;98.87
49194;BME280;35029;50.804;12.866;2023-04-24T01:42:09;96498.97;;;11.84;98.16
49194;BME280;35029;50.804;12.866;2023-04-24T01:44:35;96500.47;;;11.92;97.82
49194;BME280;35029;50.804;12.866;2023-04-24T01:47:02;96503.13;;;11.92;97.45
49194;BME280;35029;50.804;12.866;2023-04-24T01:49:29;96482.13;;;11.79;97.18
49194;BME280;35029;50.804;12.866;2023-04-24T01:51:54;96506.25;;;11.89;97.80
49194;BME280;35029;50.804;12.866;2023-04-24T01:54:20;96506.25;;;11.89;97.69
49194;BME280;35029;50.804;12.866;2023-04-24T01:56:46;96512.50;;;11.95;97.56
49194;BME280;35029;50.804;12.866;2023-04-24T01:59:12;96478.09;;;11.76;96.90
49194;BME280;35029;50.804;12.866;2023-04-24T02:01:38;96509.94;;;11.88;97.04
49194;BME280;35029;50.804;12.866;2023-04-24T02:04:06;96505.34;;;11.95;96.92
49194;BME280;35029;50.804;12.866;2023-04-24T02:06:32;96506.56;;;11.93;96.41
49194;BME280;35029;50.804;12.866;2023-04-24T02:09:00;96507.75;;;11.85;97.36
49194;BME280;35029;50.804;12.866;2023-04-24T02:11:25;96515.03;;;11.78;98.67
49194;BME280;35029;50.804;12.866;2023-04-24T02:13:52;96507.06;;;11.78;98.59
49194;BME280;35029;50.804;12.866;2023-04-24T02:16:18;96514.22;;;11.77;97.75
49194;BME280;35029;50.804;12.866;2023-04-24T02:18:44;96507.06;;;11.78;97.90
49194;BME280;35029;50.804;12.866;2023-04-24T02:21:10;96501.06;;;11.82;98.63
49194;BME280;35029;50.804;12.866;2023-04-24T02:23:35;96510.06;;;11.81;98.33
49194;BME280;35029;50.804;12.866;2023-04-24T02:26:01;96510.19;;;11.75;97.91
49194;BME280;35029;50.804;12.866;2023-04-24T02:28:27;96494.38;;;11.68;98.28
49194;BME280;35029;50.804;12.866;2023-04-24T02:30:53;96490.94;;;11.56;98.23
49194;BME280;35029;50.804;12.866;2023-04-24T02:33:21;96501.44;;;11.50;98.62
49194;BME280;35029;50.804;12.866;2023-04-24T02:35:47;96492.78;;;11.43;98.77
49194;BME280;35029;50.804;12.866;2023-04-24T02:38:12;96490.00;;;11.38;99.32
49194;BME280;35029;50.804;12.866;2023-04-24T02:40:38;96493.38;;;11.45;98.19
49194;BME280;35029;50.804;12.866;2023-04-24T02:43:03;96496.03;;;11.45;98.08
49194;BME280;35029;50.804;12.866;2023-04-24T02:45:29;96487.03;;;11.35;98.61
49194;BME280;35029;50.804;12.866;2023-04-24T02:47:55;96492.91;;;11.37;98.95
49194;BME280;35029;50.804;12.866;2023-04-24T02:50:21;96489.00;;;11.39;99.35
49194;BME280;35029;50.804;12.866;2023-04-24T02:52:47;96492.34;;;11.35;98.43
49194;BME280;35029;50.804;12.866;2023-04-24T02:55:13;96497.53;;;11.29;99.36
49194;BME280;35029;50.804;12.866;2023-04-24T02:57:38;96491.53;;;11.22;100.00
49194;BME280;35029;50.804;12.866;2023-04-24T03:00:04;96476.88;;;11.08;99.95
49194;BME280;35029;50.804;12.866;2023-04-24T03:02:32;96484.97;;;11.25;100.00
49194;BME280;35029;50.804;12.866;2023-04-24T03:04:57;96489.34;;;11.31;98.79
49194;BME280;35029;50.804;12.866;2023-04-24T03:07:24;96480.09;;;11.22;97.80
49194;BME280;35029;50.804;12.866;2023-04-24T03:09:49;96497.16;;;11.26;98.86
49194;BME280;35029;50.804;12.866;2023-04-24T03:12:15;96496.59;;;11.24;98.26
49194;BME280;35029;50.804;12.866;2023-04-24T03:14:43;96475.47;;;11.05;99.66
49194;BME280;35029;50.804;12.866;2023-04-24T03:17:08;96491.28;;;11.12;99.47
49194;BME280;35029;50.804;12.866;2023-04-24T03:19:34;96481.47;;;11.01;99.65
49194;BME280;35029;50.804;12.866;2023-04-24T03:22:05;96489.44;;;11.01;99.97
49194;BME280;35029;50.804;12.866;2023-04-24T03:24:31;96492.22;;;11.06;99.99
49194;BME280;35029;50.804;12.866;2023-04-24T03:26:57;96491.75;;;11.09;100.00
49194;BME280;35029;50.804;12.866;2023-04-24T03:29:42;96492.22;;;11.06;99.84
49194;BME280;35029;50.804;12.866;2023-04-24T03:32:08;96490.50;;;11.11;99.66
49194;BME280;35029;50.804;12.866;2023-04-24T03:34:35;96489.09;;;11.21;98.56
49194;BME280;35029;50.804;12.866;2023-04-24T03:37:01;96484.72;;;11.14;98.69
49194;BME280;35029;50.804;12.866;2023-04-24T03:39:28;96496.25;;;11.20;98.48
49194;BME280;35029;50.804;12.866;2023-04-24T03:41:55;96496.25;;;11.20;98.77
49194;BME280;35029;50.804;12.866;2023-04-24T03:44:26;96500.28;;;11.23;98.97
49194;BME280;35029;50.804;12.866;2023-04-24T03:46:52;96505.72;;;11.28;98.86
49194;BME280;35029;50.804;12.866;2023-04-24T03:49:20;96480.22;;;11.15;98.24
49194;BME280;35029;50.804;12.866;2023-04-24T03:51:47;96502.16;;;11.22;97.93
49194;BME280;35029;50.804;12.866;2023-04-24T03:54:30;96502.72;;;11.24;97.55
49194;BME280;35029;50.804;12.866;2023-04-24T03:56:56;96503.75;;;11.23;97.77
49194;BME280;35029;50.804;12.866;2023-04-24T03:59:23;96490.25;;;11.13;97.88
49194;BME280;35029;50.804;12.866;2023-04-24T04:02:02;96497.75;;;11.16;97.18
49194;BME280;35029;50.804;12.866;2023-04-24T04:04:28;96503.97;;;11.22;97.66
49194;BME280;35029;50.804;12.866;2023-04-24T04:06:53;96495.44;;;11.31;97.78
49194;BME280;35029;50.804;12.866;2023-04-24T04:09:20;96475.38;;;11.12;97.07
49194;BME280;35029;50.804;12.866;2023-04-24T04:11:47;96494.19;;;11.22;96.81
49194;BME280;35029;50.804;12.866;2023-04-24T04:14:13;96502.34;;;11.21;97.72
49194;BME280;35029;50.804;12.866;2023-04-24T04:16:41;96498.34;;;11.18;97.84
49194;BME280;35029;50.804;12.866;2023-04-24T04:19:07;96503.53;;;11.25;96.70
49194;BME280;35029;50.804;12.866;2023-04-24T04:21:33;96504.56;;;11.24;96.86
49194;BME280;35029;50.804;12.866;2023-04-24T04:24:08;96498.44;;;11.23;97.01
49194;BME280;35029;50.804;12.866;2023-04-24T04:26:38;96505.00;;;11.21;96.88
49194;BME280;35029;50.804;12.866;2023-04-24T04:29:07;96493.03;;;11.18;97.46
49194;BME280;35029;50.804;12.866;2023-04-24T04:31:36;96490.72;;;11.10;97.68
49194;BME280;35029;50.804;12.866;2023-04-24T04:34:06;96500.63;;;11.14;96.91
49194;BME280;35029;50.804;12.866;2023-04-24T04:36:34;96478.50;;;11.09;96.99
49194;BME280;35029;50.804;12.866;2023-04-24T04:39:11;96503.31;;;11.26;96.40
49194;BME280;35029;50.804;12.866;2023-04-24T04:41:58;96482.84;;;11.15;96.40
49194;BME280;35029;50.804;12.866;2023-04-24T04:44:30;96487.03;;;11.23;96.98
49194;BME280;35029;50.804;12.866;2023-04-24T04:46:57;96474.09;;;11.14;97.09
49194;BME280;35029;50.804;12.866;2023-04-24T04:49:31;96490.59;;;11.28;97.13
49194;BME280;35029;50.804;12.866;2023-04-24T04:51:57;96492.69;;;11.26;96.31
49194;BME280;35029;50.804;12.866;2023-04-24T04:54:25;96474.56;;;11.23;96.85
49194;BME280;35029;50.804;12.866;2023-04-24T04:56:55;96495.09;;;11.28;96.33
49194;BME280;35029;50.804;12.866;2023-04-24T04:59:24;96490.38;;;11.30;96.13
49194;BME280;35029;50.804;12.866;2023-04-24T05:01:58;96497.53;;;11.29;96.22
49194;BME280;35029;50.804;12.866;2023-04-24T05:04:24;96486.91;;;11.29;96.07
49194;BME280;35029;50.804;12.866;2023-04-24T05:06:52;96503.88;;;11.40;96.86
49194;BME280;35029;50.804;12.866;2023-04-24T05:09:18;96509.84;;;11.36;96.04
49194;BME280;35029;50.804;12.866;2023-04-24T05:11:49;96505.03;;;11.44;95.85
49194;BME280;35029;50.804;12.866;2023-04-24T05:14:15;96510.09;;;11.58;95.78
49194;BME280;35029;50.804;12.866;2023-04-24T05:16:43;96509.41;;;11.62;95.31
49194;BME280;35029;50.804;12.866;2023-04-24T05:19:10;96503.28;;;11.62;95.43
49194;BME280;35029;50.804;12.866;2023-04-24T05:21:40;96521.84;;;11.74;95.60
49194;BME280;35029;50.804;12.866;2023-04-24T05:24:06;96525.66;;;11.78;94.56
49194;BME280;35029;50.804;12.866;2023-04-24T05:26:56;96523.34;;;11.81;94.35
49194;BME280;35029;50.804;12.866;2023-04-24T05:29:29;96526.59;;;11.83;93.76
49194;BME280;35029;50.804;12.866;2023-04-24T05:31:56;96539.16;;;11.76;93.75
49194;BME280;35029;50.804;12.866;2023-04-24T05:34:22;96534.09;;;11.75;93.60
49194;BME280;35029;50.804;12.866;2023-04-24T05:36:52;96530.50;;;11.81;94.62
49194;BME280;35029;50.804;12.866;2023-04-24T05:39:20;96528.09;;;11.79;93.89
49194;BME280;35029;50.804;12.866;2023-04-24T05:41:45;96528.31;;;11.78;92.73
49194;BME280;35029;50.804;12.866;2023-04-24T05:44:11;96513.19;;;11.66;91.79
49194;BME280;35029;50.804;12.866;2023-04-24T05:46:37;96509.16;;;11.76;92.34
49194;BME280;35029;50.804;12.866;2023-04-24T05:49:02;96521.38;;;11.89;91.86
49194;BME280;35029;50.804;12.866;2023-04-24T05:51:30;96535.81;;;12.05;91.75
49194;BME280;35029;50.804;12.866;2023-04-24T05:53:57;96510.19;;;11.98;90.32
49194;BME280;35029;50.804;12.866;2023-04-24T05:56:24;96537.16;;;12.19;90.17
49194;BME280;35029;50.804;12.866;2023-04-24T05:58:50;96515.34;;;12.05;90.43
49194;BME280;35029;50.804;12.866;2023-04-24T06:01:17;96533.50;;;11.96;89.42
49194;BME280;35029;50.804;12.866;2023-04-24T06:03:48;96531.16;;;12.12;90.83
49194;BME280;35029;50.804;12.866;2023-04-24T06:06:15;96533.00;;;12.23;90.81
49194;BME280;35029;50.804;12.866;2023-04-24T06:08:41;96510.25;;;12.15;89.49
49194;BME280;35029;50.804;12.866;2023-04-24T06:11:08;96525.06;;;12.11;88.98
49194;BME280;35029;50.804;12.866;2023-04-24T06:13:33;96532.91;;;12.18;88.52
49194;BME280;35029;50.804;12.866;2023-04-24T06:16:17;96526.16;;;12.27;89.15
49194;BME280;35029;50.804;12.866;2023-04-24T06:18:49;96529.06;;;12.26;88.21
49194;BME280;35029;50.804;12.866;2023-04-24T06:21:16;96529.97;;;12.31;88.51
49194;BME280;35029;50.804;12.866;2023-04-24T06:23:41;96519.91;;;12.33;87.91
49194;BME280;35029;50.804;12.866;2023-04-24T06:26:08;96530.41;;;12.28;87.77
49194;BME280;35029;50.804;12.866;2023-04-24T06:28:33;96528.97;;;12.21;87.74
49194;BME280;35029;50.804;12.866;2023-04-24T06:30:59;96536.25;;;12.13;88.19
49194;BME280;35029;50.804;12.866;2023-04-24T06:33:24;96532.47;;;11.97;88.41
49194;BME280;35029;50.804;12.866;2023-04-24T06:35:50;96526.22;;;12.04;89.09
49194;BME280;35029;50.804;12.866;2023-04-24T06:38:17;96517.03;;;11.94;89.47
49194;BME280;35029;50.804;12.866;2023-04-24T06:40:43;96521.50;;;12.06;89.22
49194;BME280;35029;50.804;12.866;2023-04-24T06:43:09;96522.94;;;12.25;88.69
49194;BME280;35029;50.804;12.866;2023-04-24T06:45:34;96498.84;;;12.15;87.98
49194;BME280;35029;50.804;12.866;2023-04-24T06:48:00;96509.34;;;12.10;88.39
49194;BME280;35029;50.804;12.866;2023-04-24T06:50:26;96509.00;;;12.06;88.54
49194;BME280;35029;50.804;12.866;2023-04-24T06:52:51;96518.22;;;12.15;89.39
49194;BME280;35029;50.804;12.866;2023-04-24T06:55:24;96519.38;;;12.20;88.62
49194;BME280;35029;50.804;12.866;2023-04-24T06:57:49;96529.53;;;12.23;88.43
49194;BME280;35029;50.804;12.866;2023-04-24T07:00:15;96527.09;;;12.21;86.89
49194;BME280;35029;50.804;12.866;2023-04-24T07:02:48;96518.19;;;12.27;88.79
49194;BME280;35029;50.804;12.866;2023-04-24T07:05:13;96518.09;;;12.22;87.76
49194;BME280;35029;50.804;12.866;2023-04-24T07:07:40;96523.16;;;12.24;88.73
49194;BME280;35029;50.804;12.866;2023-04-24T07:10:07;96503.94;;;12.05;88.37
49194;BME280;35029;50.804;12.866;2023-04-24T07:12:33;96521.38;;;12.12;87.60
49194;BME280;35029;50.804;12.866;2023-04-24T07:15:00;96512.03;;;11.98;88.06
49194;BME280;35029;50.804;12.866;2023-04-24T07:17:25;96537.72;;;12.21;87.75
49194;BME280;35029;50.804;12.866;2023-04-24T07:19:52;96533.78;;;12.24;88.57
49194;BME280;35029;50.804;12.866;2023-04-24T07:22:18;96507.19;;;12.07;86.92
49194;BME280;35029;50.804;12.866;2023-04-24T07:24:44;96536.59;;;12.05;88.09
49194;BME280;35029;50.804;12.866;2023-04-24T07:27:10;96533.44;;;12.20;87.46
49194;BME280;35029;50.804;12.866;2023-04-24T07:29:35;96533.94;;;12.17;87.04
49194;BME280;35029;50.804;12.866;2023-04-24T07:32:01;96537.50;;;12.23;86.64
49194;BME280;35029;50.804;12.866;2023-04-24T07:34:26;96529.97;;;12.31;86.83
49194;BME280;35029;50.804;12.866;2023-04-24T07:36:52;96536.09;;;12.32;86.04
49194;BME280;35029;50.804;12.866;2023-04-24T07:39:18;96538.97;;;12.30;85.32
49194;BME280;35029;50.804;12.866;2023-04-24T07:41:43;96536.44;;;12.36;84.39
49194;BME280;35029;50.804;12.866;2023-04-24T07:44:09;96538.38;;;12.40;83.68
49194;BME280;35029;50.804;12.866;2023-04-24T07:46:35;96544.06;;;12.32;83.33
49194;BME280;35029;50.804;12.866;2023-04-24T07:49:01;96554.06;;;12.42;83.61
49194;BME280;35029;50.804;12.866;2023-04-24T07:51:27;96541.63;;;12.30;82.33
49194;BME280;35029;50.804;12.866;2023-04-24T07:53:53;96551.66;;;12.40;80.51
49194;BME280;35029;50.804;12.866;2023-04-24T07:56:20;96552.75;;;12.56;80.87
49194;BME280;35029;50.804;12.866;2023-04-24T07:58:46;96555.75;;;12.60;81.03
49194;BME280;35029;50.804;12.866;2023-04-24T08:01:11;96565.09;;;12.62;81.53
49194;BME280;35029;50.804;12.866;2023-04-24T08:03:37;96555.94;;;12.70;80.72
49194;BME280;35029;50.804;12.866;2023-04-24T08:06:02;96548.59;;;12.77;79.10
49194;BME280;35029;50.804;12.866;2023-04-24T08:08:28;96559.38;;;12.71;78.90
49194;BME280;35029;50.804;12.866;2023-04-24T08:10:53;96566.47;;;12.65;79.75
49194;BME280;35029;50.804;12.866;2023-04-24T08:13:20;96551.91;;;12.67;80.19
49194;BME280;35029;50.804;12.866;2023-04-24T08:15:46;96563.47;;;12.90;80.31
49194;BME280;35029;50.804;12.866;2023-04-24T08:18:11;96558.81;;;12.97;78.94
49194;BME280;35029;50.804;12.866;2023-04-24T08:20:39;96569.50;;;12.85;79.36
49194;BME280;35029;50.804;12.866;2023-04-24T08:23:04;96563.78;;;12.94;78.78
49194;BME280;35029;50.804;12.866;2023-04-24T08:25:30;96566.81;;;13.14;79.43
49194;BME280;35029;50.804;12.866;2023-04-24T08:27:56;96566.97;;;13.08;78.94
49194;BME280;35029;50.804;12.866;2023-04-24T08:30:21;96558.75;;;13.09;79.09
49194;BME280;35029;50.804;12.866;2023-04-24T08:32:47;96568.41;;;13.15;77.98
49194;BME280;35029;50.804;12.866;2023-04-24T08:35:13;96570.28;;;13.15;76.88
49194;BME280;35029;50.804;12.866;2023-04-24T08:37:39;96562.22;;;13.10;77.64
49194;BME280;35029;50.804;12.866;2023-04-24T08:40:15;96565.69;;;13.27;78.23
49194;BME280;35029;50.804;12.866;2023-04-24T08:42:43;96568.25;;;13.22;75.31
49194;BME280;35029;50.804;12.866;2023-04-24T08:45:11;96563.50;;;13.07;76.69
49194;BME280;35029;50.804;12.866;2023-04-24T08:47:41;96577.72;;;13.30;77.57
49194;BME280;35029;50.804;12.866;2023-04-24T08:50:07;96561.22;;;13.45;78.08
49194;BME280;35029;50.804;12.866;2023-04-24T08:52:34;96545.47;;;13.60;77.46
49194;BME280;35029;50.804;12.866;2023-04-24T08:55:00;96562.41;;;13.71;76.33
49194;BME280;35029;50.804;12.866;2023-04-24T08:57:27;96557.59;;;13.90;73.36
49194;BME280;35029;50.804;12.866;2023-04-24T08:59:53;96547.88;;;14.01;72.64
49194;BME280;35029;50.804;12.866;2023-04-24T09:02:20;96558.28;;;14.02;71.00
49194;BME280;35029;50.804;12.866;2023-04-24T09:04:46;96533.56;;;13.85;73.34
49194;BME280;35029;50.804;12.866;2023-04-24T09:07:14;96548.31;;;14.15;74.54
49194;BME280;35029;50.804;12.866;2023-04-24T09:09:42;96549.16;;;14.15;74.47
49194;BME280;35029;50.804;12.866;2023-04-24T09:12:07;96547.78;;;14.13;74.20
49194;BME280;35029;50.804;12.866;2023-04-24T09:14:35;96556.56;;;13.74;73.58
49194;BME280;35029;50.804;12.866;2023-04-24T09:17:06;96555.69;;;13.68;73.83
49194;BME280;35029;50.804;12.866;2023-04-24T09:19:31;96560.63;;;13.43;74.77
49194;BME280;35029;50.804;12.866;2023-04-24T09:21:57;96550.84;;;13.31;76.54
49194;BME280;35029;50.804;12.866;2023-04-24T09:24:23;96559.25;;;13.23;76.42
49194;BME280;35029;50.804;12.866;2023-04-24T09:26:55;96527.88;;;13.08;76.12
49194;BME280;35029;50.804;12.866;2023-04-24T09:29:22;96536.97;;;12.95;76.33
49194;BME280;35029;50.804;12.866;2023-04-24T09:31:48;96568.25;;;13.05;76.01
49194;BME280;35029;50.804;12.866;2023-04-24T09:34:14;96543.59;;;13.10;75.39
49194;BME280;35029;50.804;12.866;2023-04-24T09:36:42;96563.19;;;13.21;76.27
49194;BME280;35029;50.804;12.866;2023-04-24T09:39:09;96572.00;;;13.21;74.53
49194;BME280;35029;50.804;12.866;2023-04-24T09:41:55;96576.53;;;12.92;73.95
49194;BME280;35029;50.804;12.866;2023-04-24T09:44:27;96568.81;;;12.90;73.68
49194;BME280;35029;50.804;12.866;2023-04-24T09:46:55;96581.38;;;12.95;72.11
49194;BME280;35029;50.804;12.866;2023-04-24T09:49:25;96577.13;;;13.11;71.54
49194;BME280;35029;50.804;12.866;2023-04-24T09:51:52;96570.50;;;13.42;70.01
49194;BME280;35029;50.804;12.866;2023-04-24T09:54:27;96576.88;;;13.58;70.43
49194;BME280;35029;50.804;12.866;2023-04-24T09:56:54;96578.44;;;13.76;68.51
49194;BME280;35029;50.804;12.866;2023-04-24T09:59:20;96573.94;;;14.16;67.43
49194;BME280;35029;50.804;12.866;2023-04-24T10:01:46;96572.88;;;14.39;67.25
49194;BME280;35029;50.804;12.866;2023-04-24T10:04:18;96570.59;;;14.26;66.86
49194;BME280;35029;50.804;12.866;2023-04-24T10:06:45;96569.09;;;13.74;65.34
49194;BME280;35029;50.804;12.866;2023-04-24T10:09:11;96563.56;;;13.97;64.83
49194;BME280;35029;50.804;12.866;2023-04-24T10:11:43;96568.50;;;13.89;62.95
49194;BME280;35029;50.804;12.866;2023-04-24T10:14:29;96564.56;;;14.13;65.00
49194;BME280;35029;50.804;12.866;2023-04-24T10:16:55;96576.78;;;14.31;63.98
49194;BME280;35029;50.804;12.866;2023-04-24T10:19:25;96562.16;;;14.56;63.44
49194;BME280;35029;50.804;12.866;2023-04-24T10:21:53;96563.75;;;14.57;60.45
49194;BME280;35029;50.804;12.866;2023-04-24T10:24:19;96544.53;;;15.04;58.23
49194;BME280;35029;50.804;12.866;2023-04-24T10:26:48;96567.78;;;14.82;58.54
49194;BME280;35029;50.804;12.866;2023-04-24T10:29:16;96557.75;;;14.94;59.49
49194;BME280;35029;50.804;12.866;2023-04-24T10:31:42;96575.31;;;14.90;57.46
49194;BME280;35029;50.804;12.866;2023-04-24T10:34:11;96574.63;;;14.73;58.64
49194;BME280;35029;50.804;12.866;2023-04-24T10:36:40;96581.47;;;14.91;55.26
49194;BME280;35029;50.804;12.866;2023-04-24T10:39:08;96576.50;;;15.32;52.38
49194;BME280;35029;50.804;12.866;2023-04-24T10:41:37;96592.50;;;14.99;52.17
49194;BME280;35029;50.804;12.866;2023-04-24T10:46:32;96597.13;;;14.37;52.74
49194;BME280;35029;50.804;12.866;2023-04-24T10:48:58;96576.53;;;14.11;52.90
49194;BME280;35029;50.804;12.866;2023-04-24T10:51:26;96588.88;;;14.17;54.35
49194;BME280;35029;50.804;12.866;2023-04-24T10:54:42;96590.25;;;14.42;54.25
49194;BME280;35029;50.804;12.866;2023-04-24T10:59:49;96589.66;;;14.17;55.88
49194;BME280;35029;50.804;12.866;2023-04-24T11:02:16;96572.03;;;13.94;56.74
49194;BME280;35029;50.804;12.866;2023-04-24T11:04:43;96597.47;;;14.02;54.95
49194;BME280;35029;50.804;12.866;2023-04-24T11:07:10;96574.16;;;14.59;54.36
49194;BME280;35029;50.804;12.866;2023-04-24T11:09:36;96583.78;;;14.82;52.70
49194;BME280;35029;50.804;12.866;2023-04-24T11:12:04;96600.53;;;14.55;53.54
49194;BME280;35029;50.804;12.866;2023-04-24T11:15:12;96556.56;;;14.13;52.84
49194;BME280;35029;50.804;12.866;2023-04-24T11:17:42;96613.72;;;14.45;52.14
49194;BME280;35029;50.804;12.866;2023-04-24T11:20:15;96605.97;;;14.21;49.70
49194;BME280;35029;50.804;12.866;2023-04-24T11:22:41;96597.75;;;14.23;49.93
49194;BME280;35029;50.804;12.866;2023-04-24T11:25:08;96612.50;;;14.30;49.75
49194;BME280;35029;50.804;12.866;2023-04-24T11:27:44;96610.97;;;14.34;51.75
49194;BME280;35029;50.804;12.866;2023-04-24T11:30:11;96607.09;;;13.86;50.35
49194;BME280;35029;50.804;12.866;2023-04-24T11:37:39;96635.72;;;14.52;51.11
49194;BME280;35029;50.804;12.866;2023-04-24T11:40:07;96631.31;;;14.85;50.38
49194;BME280;35029;50.804;12.866;2023-04-24T11:42:35;96622.00;;;14.87;52.05
49194;BME280;35029;50.804;12.866;2023-04-24T11:45:00;96648.72;;;15.42;50.56
49194;BME280;35029;50.804;12.866;2023-04-24T11:47:31;96641.78;;;15.79;48.41
49194;BME280;35029;50.804;12.866;2023-04-24T11:49:59;96633.88;;;15.89;46.88
49194;BME280;35029;50.804;12.866;2023-04-24T11:52:27;96619.09;;;15.44;44.88
49194;BME280;35029;50.804;12.866;2023-04-24T11:54:53;96636.50;;;15.24;46.55
49194;BME280;35029;50.804;12.866;2023-04-24T11:57:19;96632.91;;;15.68;45.50
49194;BME280;35029;50.804;12.866;2023-04-24T11:59:46;96630.28;;;15.46;45.35
49194;BME280;35029;50.804;12.866;2023-04-24T12:02:25;96627.63;;;14.91;46.17
49194;BME280;35029;50.804;12.866;2023-04-24T12:04:52;96622.31;;;14.91;47.23
49194;BME280;35029;50.804;12.866;2023-04-24T12:07:18;96637.91;;;14.77;47.78
49194;BME280;35029;50.804;12.866;2023-04-24T12:09:50;96642.47;;;14.82;48.62
49194;BME280;35029;50.804;12.866;2023-04-24T12:12:20;96636.47;;;15.46;47.26
49194;BME280;35029;50.804;12.866;2023-04-24T12:15:09;96637.91;;;15.59;43.08
49194;BME280;35029;50.804;12.866;2023-04-24T12:17:35;96625.91;;;15.94;43.91
49194;BME280;35029;50.804;12.866;2023-04-24T12:20:06;96621.47;;;16.68;43.03
49194;BME280;35029;50.804;12.866;2023-04-24T12:25:18;96638.44;;;15.88;42.27
49194;BME280;35029;50.804;12.866;2023-04-24T12:27:45;96630.94;;;15.58;42.84
49194;BME280;35029;50.804;12.866;2023-04-24T12:30:15;96641.69;;;15.09;44.87
49194;BME280;35029;50.804;12.866;2023-04-24T12:32:43;96627.97;;;15.54;43.85
49194;BME280;35029;50.804;12.866;2023-04-24T12:35:09;96630.47;;;15.34;45.02
49194;BME280;35029;50.804;12.866;2023-04-24T12:37:35;96637.13;;;15.04;45.07
49194;BME280;35029;50.804;12.866;2023-04-24T12:40:09;96637.84;;;15.21;46.04
49194;BME280;35029;50.804;12.866;2023-04-24T12:42:43;96620.03;;;15.05;46.11
49194;BME280;35029;50.804;12.866;2023-04-24T12:45:09;96629.19;;;14.87;45.87
49194;BME280;35029;50.804;12.866;2023-04-24T12:47:37;96625.00;;;14.69;45.76
49194;BME280;35029;50.804;12.866;2023-04-24T12:50:04;96635.53;;;15.63;45.99
49194;BME280;35029;50.804;12.866;2023-04-24T12:52:30;96615.44;;;15.87;42.58
49194;BME280;35029;50.804;12.866;2023-04-24T12:55:00;96608.72;;;16.28;44.07
49194;BME280;35029;50.804;12.866;2023-04-24T12:57:30;96590.44;;;15.71;42.78
49194;BME280;35029;50.804;12.866;2023-04-24T12:59:57;96614.03;;;16.17;42.33
49194;BME280;35029;50.804;12.866;2023-04-24T13:02:24;96615.56;;;16.08;41.19
49194;BME280;35029;50.804;12.866;2023-04-24T13:04:51;96624.00;;;15.57;42.65
49194;BME280;35029;50.804;12.866;2023-04-24T13:07:17;96610.44;;;16.01;42.18